createdAt,value
2023-02-12T00:00:51.876Z,103027.97
2023-02-12T00:03:18.521Z,103035.94
2023-02-12T00:05:45.483Z,103009.44
2023-02-12T00:08:12.180Z,102991.38
2023-02-12T00:10:43.606Z,103013.91
2023-02-12T00:13:11.015Z,103013.84
2023-02-12T00:15:42.364Z,103025.88
2023-02-12T00:18:10.097Z,103012.06
2023-02-12T00:20:37.933Z,103023.41
2023-02-12T00:23:05.162Z,102991.47
2023-02-12T00:25:31.776Z,103018.75
2023-02-12T00:27:58.371Z,103020.81
2023-02-12T00:30:24.931Z,103018.44
2023-02-12T00:32:51.532Z,103018.22
2023-02-12T00:35:18.172Z,103023.91
2023-02-12T00:37:44.681Z,102991.91
2023-02-12T00:40:11.581Z,102998.34
2023-02-12T00:42:38.087Z,103018.97
2023-02-12T00:45:04.805Z,103019.66
2023-02-12T00:47:31.580Z,103010.72
2023-02-12T00:49:58.044Z,103021.34
2023-02-12T00:52:24.545Z,102997.72
2023-02-12T00:54:51.084Z,103012.88
2023-02-12T00:57:17.555Z,103002.69
2023-02-12T00:59:44.062Z,102974.06
2023-02-12T01:02:10.625Z,103014.88
2023-02-12T01:04:37.240Z,103013.28
2023-02-12T01:07:03.772Z,102994.06
2023-02-12T01:09:30.326Z,103012.72
2023-02-12T01:11:56.846Z,103029.06
2023-02-12T01:14:23.348Z,103017.53
2023-02-12T01:16:50.120Z,103003.34
2023-02-12T01:19:16.896Z,102996.84
2023-02-12T01:21:43.776Z,103019.78
2023-02-12T01:24:10.571Z,103012.56
2023-02-12T01:26:37.214Z,103015.25
2023-02-12T01:29:05.509Z,103021.69
2023-02-12T01:31:34.462Z,103009.63
2023-02-12T01:34:01.606Z,103012.88
2023-02-12T01:36:29.453Z,103013.03
2023-02-12T01:38:57.848Z,103014.56
2023-02-12T01:41:26.924Z,103014.78
2023-02-12T01:44:13.604Z,103022.31
2023-02-12T01:46:41.421Z,103011.38
2023-02-12T01:49:20.066Z,103018.53
2023-02-12T01:51:47.889Z,102986.66
2023-02-12T01:54:17.346Z,102971.22
2023-02-12T01:56:43.902Z,103018.22
2023-02-12T01:59:11.157Z,103016.00
2023-02-12T02:01:38.252Z,103016.03
2023-02-12T02:04:11.835Z,103016.88
2023-02-12T02:06:44.577Z,103010.91
2023-02-12T02:09:11.491Z,103018.66
2023-02-12T02:11:56.585Z,102954.13
2023-02-12T02:14:35.351Z,102965.63
2023-02-12T02:17:20.992Z,103005.53
2023-02-12T02:20:18.499Z,103006.13
2023-02-12T02:23:22.796Z,103005.84
2023-02-12T02:26:27.005Z,103009.41
2023-02-12T02:29:28.326Z,103014.34
2023-02-12T02:31:57.886Z,103011.44
2023-02-12T02:34:41.339Z,103004.91
2023-02-12T02:37:46.855Z,102998.59
2023-02-12T02:40:18.795Z,102960.00
2023-02-12T02:43:04.193Z,102996.44
2023-02-12T02:45:38.333Z,102993.00
2023-02-12T02:48:08.444Z,102979.13
2023-02-12T02:50:36.340Z,102982.56
2023-02-12T02:53:06.759Z,102990.44
2023-02-12T02:55:38.842Z,102989.94
2023-02-12T02:58:10.701Z,102970.31
2023-02-12T03:01:14.874Z,102983.50
2023-02-12T03:03:50.426Z,102987.38
2023-02-12T03:06:31.007Z,102980.81
2023-02-12T03:09:01.817Z,102976.56
2023-02-12T03:11:31.084Z,102978.16
2023-02-12T03:14:26.167Z,102991.75
2023-02-12T03:16:58.580Z,102992.47
2023-02-12T03:19:41.708Z,102987.13
2023-02-12T03:22:14.764Z,102992.19
2023-02-12T03:24:48.643Z,102907.25
2023-02-12T03:27:20.460Z,102978.50
2023-02-12T03:29:47.610Z,102986.13
2023-02-12T03:32:20.035Z,102979.88
2023-02-12T03:35:06.816Z,102949.59
2023-02-12T03:37:36.381Z,102989.41
2023-02-12T03:40:12.109Z,102990.34
2023-02-12T03:42:44.719Z,102996.16
2023-02-12T03:45:19.950Z,103002.25
2023-02-12T03:47:49.038Z,102967.63
2023-02-12T03:50:27.304Z,102997.25
2023-02-12T03:52:54.001Z,103002.56
2023-02-12T03:55:20.463Z,102996.75
2023-02-12T03:57:50.672Z,103005.03
2023-02-12T04:00:21.285Z,103001.75
2023-02-12T04:02:48.018Z,102986.06
2023-02-12T04:05:20.376Z,103003.00
2023-02-12T04:07:46.921Z,102971.34
2023-02-12T04:10:14.096Z,103003.75
2023-02-12T04:12:45.108Z,103007.25
2023-02-12T04:15:14.681Z,103010.81
2023-02-12T04:17:50.469Z,103011.53
2023-02-12T04:20:38.805Z,103014.22
2023-02-12T04:23:22.919Z,103017.75
2023-02-12T04:25:52.534Z,102898.63
2023-02-12T04:28:31.326Z,103019.91
2023-02-12T04:31:05.474Z,103021.44
2023-02-12T04:33:36.206Z,103023.28
2023-02-12T04:36:14.588Z,103028.28
2023-02-12T04:38:45.404Z,103043.44
2023-02-12T04:41:11.934Z,102996.47
2023-02-12T04:43:38.531Z,103044.06
2023-02-12T04:46:07.329Z,103042.78
2023-02-12T04:48:34.846Z,103042.63
2023-02-12T04:51:02.097Z,103040.47
2023-02-12T04:53:28.689Z,103050.22
2023-02-12T04:55:55.855Z,103006.47
2023-02-12T04:58:22.655Z,103024.91
2023-02-12T05:00:49.116Z,103054.34
2023-02-12T05:03:15.574Z,103054.75
2023-02-12T05:05:42.074Z,103049.31
2023-02-12T05:08:08.604Z,103052.03
2023-02-12T05:10:35.032Z,103047.22
2023-02-12T05:13:01.783Z,103039.97
2023-02-12T05:15:28.321Z,103048.94
2023-02-12T05:17:54.957Z,102994.28
2023-02-12T05:20:21.429Z,103007.97
2023-02-12T05:22:52.132Z,103005.88
2023-02-12T05:25:18.691Z,103020.72
2023-02-12T05:27:45.169Z,103019.25
2023-02-12T05:30:12.276Z,103042.75
2023-02-12T05:32:38.803Z,103036.91
2023-02-12T05:35:05.730Z,103050.41
2023-02-12T05:37:34.925Z,103053.88
2023-02-12T05:40:01.728Z,103056.41
2023-02-12T05:42:29.635Z,103052.72
2023-02-12T05:44:56.115Z,103028.41
2023-02-12T05:47:22.570Z,103050.66
2023-02-12T05:49:48.993Z,103050.94
2023-02-12T05:52:15.438Z,102999.50
2023-02-12T05:54:41.915Z,103057.00
2023-02-12T05:57:08.468Z,103046.44
2023-02-12T05:59:35.055Z,103011.47
2023-02-12T06:02:01.573Z,103008.97
2023-02-12T06:04:28.818Z,103067.63
2023-02-12T06:06:55.986Z,103066.66
2023-02-12T06:09:23.549Z,103055.38
2023-02-12T06:11:50.139Z,103042.38
2023-02-12T06:14:18.742Z,103022.41
2023-02-12T06:16:47.003Z,103045.13
2023-02-12T06:19:13.626Z,103024.03
2023-02-12T06:21:40.175Z,103065.22
2023-02-12T06:24:07.070Z,103049.53
2023-02-12T06:26:33.595Z,103060.91
2023-02-12T06:29:01.249Z,103047.66
2023-02-12T06:31:28.811Z,103072.34
2023-02-12T06:33:59.030Z,103075.94
2023-02-12T06:36:25.677Z,103034.78
2023-02-12T06:38:52.780Z,103078.06
2023-02-12T06:41:21.690Z,103084.16
2023-02-12T06:43:48.135Z,103026.72
2023-02-12T06:46:15.439Z,103080.78
2023-02-12T06:48:42.281Z,103064.56
2023-02-12T06:51:12.063Z,103081.25
2023-02-12T06:53:39.037Z,103063.59
2023-02-12T06:56:11.056Z,103084.97
2023-02-12T06:58:39.114Z,103066.09
2023-02-12T07:01:13.781Z,103095.06
2023-02-12T07:03:41.630Z,103092.06
2023-02-12T07:06:09.224Z,103101.72
2023-02-12T07:08:35.858Z,103059.00
2023-02-12T07:11:02.893Z,103092.22
2023-02-12T07:13:29.439Z,103098.81
2023-02-12T07:15:56.405Z,103099.59
2023-02-12T07:18:23.105Z,103103.09
2023-02-12T07:20:49.539Z,103065.09
2023-02-12T07:23:16.040Z,103106.03
2023-02-12T07:25:42.590Z,103110.75
2023-02-12T07:28:09.314Z,103116.06
2023-02-12T07:30:35.862Z,103116.16
2023-02-12T07:33:02.350Z,103121.13
2023-02-12T07:35:28.882Z,103123.34
2023-02-12T07:37:55.334Z,103126.75
2023-02-12T07:40:21.903Z,103128.16
2023-02-12T07:42:53.536Z,103120.78
2023-02-12T07:45:20.140Z,103092.00
2023-02-12T07:47:46.648Z,103121.66
2023-02-12T07:50:13.141Z,103132.09
2023-02-12T07:52:39.604Z,103102.06
2023-02-12T07:55:06.985Z,103118.00
2023-02-12T07:57:35.036Z,103093.69
2023-02-12T08:00:01.648Z,103119.81
2023-02-12T08:02:28.259Z,103133.97
2023-02-12T08:04:58.908Z,103136.34
2023-02-12T08:07:25.642Z,103110.94
2023-02-12T08:09:52.197Z,103137.88
2023-02-12T08:12:18.796Z,103119.72
2023-02-12T08:14:45.310Z,103162.97
2023-02-12T08:17:12.227Z,103137.03
2023-02-12T08:19:38.840Z,103152.94
2023-02-12T08:22:06.531Z,103113.84
2023-02-12T08:24:33.330Z,103162.34
2023-02-12T08:26:59.903Z,103164.81
2023-02-12T08:29:29.412Z,103163.13
2023-02-12T08:31:59.439Z,103158.63
2023-02-12T08:34:29.206Z,103165.81
2023-02-12T08:36:56.357Z,103160.69
2023-02-12T08:39:25.016Z,103168.72
2023-02-12T08:41:52.032Z,103168.59
2023-02-12T08:44:18.677Z,103129.81
2023-02-12T08:46:50.371Z,103170.28
2023-02-12T08:49:22.271Z,103171.91
2023-02-12T08:51:51.891Z,103168.81
2023-02-12T08:54:24.184Z,103176.28
2023-02-12T08:56:54.452Z,103179.53
2023-02-12T08:59:20.985Z,103151.06
2023-02-12T09:01:50.680Z,103148.06
2023-02-12T09:04:23.154Z,103173.41
2023-02-12T09:06:50.442Z,103191.28
2023-02-12T09:09:17.593Z,103190.81
2023-02-12T09:11:44.977Z,103191.00
2023-02-12T09:14:14.819Z,103181.81
2023-02-12T09:16:42.135Z,103194.19
2023-02-12T09:19:10.956Z,103192.88
2023-02-12T09:21:37.475Z,103194.13
2023-02-12T09:24:04.283Z,103196.66
2023-02-12T09:26:31.365Z,103197.38
2023-02-12T09:28:58.041Z,103193.75
2023-02-12T09:31:27.804Z,103204.31
2023-02-12T09:33:57.950Z,103172.53
2023-02-12T09:36:25.202Z,103147.78
2023-02-12T09:38:53.852Z,103195.59
2023-02-12T09:41:45.493Z,103202.84
2023-02-12T09:44:39.365Z,103204.63
2023-02-12T09:47:11.925Z,103200.25
2023-02-12T09:49:50.533Z,103197.38
2023-02-12T09:52:22.479Z,103191.84
2023-02-12T09:54:49.804Z,103196.06
2023-02-12T09:57:29.633Z,103199.84
2023-02-12T10:00:08.486Z,103157.84
2023-02-12T10:02:39.921Z,103205.00
2023-02-12T10:05:15.717Z,103208.59
2023-02-12T10:07:57.289Z,103204.91
2023-02-12T10:10:45.245Z,103200.50
2023-02-12T10:13:20.844Z,103204.50
2023-02-12T10:16:10.469Z,103201.84
2023-02-12T10:18:43.264Z,103200.72
2023-02-12T10:21:25.135Z,103208.47
2023-02-12T10:24:06.055Z,103208.22
2023-02-12T10:26:46.829Z,103206.94
2023-02-12T10:29:17.721Z,103173.66
2023-02-12T10:31:47.384Z,103189.63
2023-02-12T10:34:26.823Z,103207.38
2023-02-12T10:36:59.263Z,103206.81
2023-02-12T10:39:33.130Z,103166.03
2023-02-12T10:42:04.207Z,103193.69
2023-02-12T10:44:32.341Z,103201.31
2023-02-12T10:46:58.940Z,103183.59
2023-02-12T10:49:25.748Z,103180.91
2023-02-12T10:52:12.024Z,103165.75
2023-02-12T10:54:46.637Z,103194.88
2023-02-12T10:57:30.107Z,103192.16
2023-02-12T11:03:58.549Z,103188.53
2023-02-12T11:06:27.842Z,103162.44
2023-02-12T11:08:54.750Z,103153.25
2023-02-12T11:11:28.040Z,103147.63
2023-02-12T11:14:03.772Z,103168.06
2023-02-12T11:16:35.767Z,103176.69
2023-02-12T11:19:08.103Z,103167.13
2023-02-12T11:21:36.385Z,103154.47
2023-02-12T11:24:22.834Z,103171.44
2023-02-12T11:26:49.589Z,103167.81
2023-02-12T11:29:26.574Z,103162.34
2023-02-12T11:32:05.798Z,103139.16
2023-02-12T11:34:32.472Z,103162.03
2023-02-12T11:36:59.061Z,103159.19
2023-02-12T11:39:35.016Z,103157.78
2023-02-12T11:42:16.632Z,103162.03
2023-02-12T11:44:48.804Z,103147.22
2023-02-12T11:47:24.200Z,103164.72
2023-02-12T11:49:57.067Z,103128.03
2023-02-12T11:52:26.465Z,103124.81
2023-02-12T11:55:00.361Z,103146.47
2023-02-12T11:57:49.328Z,103153.47
2023-02-12T12:00:26.185Z,103150.72
2023-02-12T12:03:14.907Z,103102.44
2023-02-12T12:05:46.638Z,103139.03
2023-02-12T12:08:28.061Z,103130.59
2023-02-12T12:11:11.305Z,103137.47
2023-02-12T12:13:44.646Z,103129.63
2023-02-12T12:16:38.412Z,103090.25
2023-02-12T12:19:49.306Z,103114.91
2023-02-12T12:22:23.219Z,103116.75
2023-02-12T12:24:56.436Z,103119.88
2023-02-12T12:28:05.424Z,103116.53
2023-02-12T12:30:51.018Z,103113.78
2023-02-12T12:33:49.107Z,103099.94
2023-02-12T12:36:27.817Z,103109.56
2023-02-12T12:39:07.077Z,103114.41
2023-02-12T12:42:18.273Z,103109.66
2023-02-12T12:45:21.816Z,103105.75
2023-02-12T12:48:17.209Z,103094.03
2023-02-12T12:51:04.860Z,103102.34
2023-02-12T12:53:53.141Z,103093.59
2023-02-12T12:56:25.734Z,103094.34
2023-02-12T12:58:55.229Z,103093.81
2023-02-12T13:01:42.921Z,103089.31
2023-02-12T13:04:12.483Z,103081.91
2023-02-12T13:07:07.034Z,103074.38
2023-02-12T13:09:53.741Z,103078.81
2023-02-12T13:12:41.606Z,103072.78
2023-02-12T13:15:56.417Z,103073.97
2023-02-12T13:18:35.014Z,103048.31
2023-02-12T13:21:19.008Z,103069.28
2023-02-12T13:23:58.593Z,103067.59
2023-02-12T13:26:33.679Z,103024.09
2023-02-12T13:29:12.182Z,103061.38
2023-02-12T13:31:49.648Z,103060.31
2023-02-12T13:34:17.993Z,103062.97
2023-02-12T13:36:45.334Z,103060.63
2023-02-12T13:39:24.166Z,103057.28
2023-02-12T13:42:07.843Z,103067.28
2023-02-12T13:44:46.604Z,103056.63
2023-02-12T13:47:20.706Z,103075.81
2023-02-12T13:49:52.131Z,103063.03
2023-02-12T13:52:44.015Z,103029.94
2023-02-12T13:55:19.526Z,103070.94
2023-02-12T13:57:46.076Z,103067.56
2023-02-12T14:00:50.138Z,103056.00
2023-02-12T14:03:16.675Z,103061.06
2023-02-12T14:05:43.302Z,103059.66
2023-02-12T14:08:37.498Z,103065.69
2023-02-12T14:11:08.341Z,103069.66
2023-02-12T14:13:49.421Z,102987.38
2023-02-12T14:16:31.338Z,103066.13
2023-02-12T14:19:35.396Z,103062.22
2023-02-12T14:22:06.894Z,103061.84
2023-02-12T14:24:36.547Z,103068.88
2023-02-12T14:27:19.980Z,103039.94
2023-02-12T14:30:05.464Z,103074.06
2023-02-12T14:32:50.340Z,103068.50
2023-02-12T14:35:26.113Z,103072.91
2023-02-12T14:38:03.170Z,103011.25
2023-02-12T14:41:41.966Z,103073.53
2023-02-12T14:44:19.938Z,103074.53
2023-02-12T14:46:52.056Z,103019.25
2023-02-12T14:49:25.275Z,103071.81
2023-02-12T14:52:07.080Z,103071.00
2023-02-12T14:54:48.655Z,103073.03
2023-02-12T14:57:40.361Z,103065.47
2023-02-12T15:00:27.221Z,103066.22
2023-02-12T15:03:07.620Z,103065.50
2023-02-12T15:05:40.030Z,103061.09
2023-02-12T15:08:16.930Z,103063.03
2023-02-12T15:10:50.540Z,103064.41
2023-02-12T15:13:43.227Z,103066.88
2023-02-12T15:16:17.334Z,103037.66
2023-02-12T15:18:54.521Z,103052.19
2023-02-12T15:21:24.979Z,103053.88
2023-02-12T15:24:09.457Z,103053.41
2023-02-12T15:26:48.399Z,103050.91
2023-02-12T15:29:31.191Z,103056.00
2023-02-12T15:31:59.954Z,103052.06
2023-02-12T15:34:30.280Z,103059.03
2023-02-12T15:36:58.777Z,103039.84
2023-02-12T15:39:25.868Z,103040.03
2023-02-12T15:41:52.398Z,103001.28
2023-02-12T15:44:24.903Z,103043.38
2023-02-12T15:46:59.061Z,103036.25
2023-02-12T15:49:36.956Z,103043.69
2023-02-12T15:52:34.499Z,102993.84
2023-02-12T15:55:05.010Z,103018.38
2023-02-12T15:57:32.411Z,103045.03
2023-02-12T16:00:07.872Z,103042.22
2023-02-12T16:02:34.561Z,103037.13
2023-02-12T16:05:02.451Z,103031.84
2023-02-12T16:07:33.264Z,103033.09
2023-02-12T16:10:00.085Z,103035.66
2023-02-12T16:12:30.557Z,103023.50
2023-02-12T16:15:00.389Z,103026.69
2023-02-12T16:17:35.030Z,103034.75
2023-02-12T16:20:25.586Z,103031.22
2023-02-12T16:22:52.808Z,103019.78
2023-02-12T16:25:22.450Z,102991.09
2023-02-12T16:28:07.140Z,102984.97
2023-02-12T16:30:42.883Z,103030.44
2023-02-12T16:33:35.288Z,103025.97
2023-02-12T16:36:27.597Z,103033.75
2023-02-12T16:38:56.326Z,103046.03
2023-02-12T16:41:32.470Z,103040.25
2023-02-12T16:44:02.043Z,103038.88
2023-02-12T16:46:31.302Z,103041.91
2023-02-12T16:49:00.524Z,102986.72
2023-02-12T16:51:32.025Z,103048.97
2023-02-12T16:54:00.402Z,103040.34
2023-02-12T16:56:29.339Z,103037.34
2023-02-12T16:59:00.194Z,103041.09
2023-02-12T17:01:29.775Z,102986.56
2023-02-12T17:03:57.695Z,103050.34
2023-02-12T17:06:26.789Z,103049.41
2023-02-12T17:08:53.626Z,103048.22
2023-02-12T17:11:20.637Z,103057.34
2023-02-12T17:13:49.538Z,103054.41
2023-02-12T17:16:29.974Z,103055.97
2023-02-12T17:18:57.712Z,103027.22
2023-02-12T17:21:32.451Z,103010.38
2023-02-12T17:23:59.061Z,103053.38
2023-02-12T17:26:26.042Z,103045.63
2023-02-12T17:28:52.632Z,103003.56
2023-02-12T17:31:20.718Z,103069.31
2023-02-12T17:33:48.214Z,103065.88
2023-02-12T17:36:14.976Z,103031.84
2023-02-12T17:38:41.455Z,103070.19
2023-02-12T17:41:11.129Z,103076.94
2023-02-12T17:43:38.109Z,103023.16
2023-02-12T17:46:17.176Z,103055.94
2023-02-12T17:48:43.765Z,103057.41
2023-02-12T17:51:11.693Z,103084.47
2023-02-12T17:53:39.868Z,103079.06
2023-02-12T17:56:11.276Z,103078.75
2023-02-12T17:58:38.692Z,103044.84
2023-02-12T18:01:10.574Z,103085.88
2023-02-12T18:03:37.553Z,103084.94
2023-02-12T18:06:04.952Z,102981.38
2023-02-12T18:08:31.870Z,103088.25
2023-02-12T18:10:59.017Z,103065.63
2023-02-12T18:13:25.641Z,103082.41
2023-02-12T18:15:52.340Z,103028.56
2023-02-12T18:18:19.136Z,103087.75
2023-02-12T18:20:45.729Z,103048.09
2023-02-12T18:23:12.680Z,103077.63
2023-02-12T18:25:43.978Z,103073.03
2023-02-12T18:28:11.376Z,103082.44
2023-02-12T18:30:39.199Z,103071.94
2023-02-12T18:33:06.207Z,103079.75
2023-02-12T18:35:33.540Z,103051.47
2023-02-12T18:38:00.157Z,103038.28
2023-02-12T18:40:26.912Z,103046.38
2023-02-12T18:42:53.548Z,103079.69
2023-02-12T18:45:21.657Z,103058.66
2023-02-12T18:47:48.174Z,103080.00
2023-02-12T18:50:14.800Z,103081.84
2023-02-12T18:52:41.576Z,103027.47
2023-02-12T18:55:08.345Z,103082.06
2023-02-12T18:57:34.887Z,103080.25
2023-02-12T19:00:02.719Z,103047.31
2023-02-12T19:02:29.439Z,103075.13
2023-02-12T19:04:55.920Z,103073.53
2023-02-12T19:07:22.509Z,103073.31
2023-02-12T19:09:49.285Z,103076.66
2023-02-12T19:12:15.908Z,103071.56
2023-02-12T19:14:42.620Z,103071.50
2023-02-12T19:17:09.105Z,103079.06
2023-02-12T19:19:35.595Z,103004.19
2023-02-12T19:22:02.162Z,103074.50
2023-02-12T19:24:40.829Z,103074.28
2023-02-12T19:27:12.008Z,103078.72
2023-02-12T19:29:38.473Z,103063.34
2023-02-12T19:32:05.205Z,103061.84
2023-02-12T19:34:31.919Z,103055.97
2023-02-12T19:36:58.385Z,103032.38
2023-02-12T19:39:24.953Z,103076.34
2023-02-12T19:41:51.853Z,103059.91
2023-02-12T19:44:21.903Z,103030.72
2023-02-12T19:46:49.653Z,103086.06
2023-02-12T19:49:19.338Z,103081.47
2023-02-12T19:51:46.021Z,103052.16
2023-02-12T19:54:14.365Z,103080.88
2023-02-12T19:56:41.357Z,103081.25
2023-02-12T19:59:08.055Z,103034.22
2023-02-12T20:01:35.398Z,103074.50
2023-02-12T20:04:02.426Z,103073.09
2023-02-12T20:06:35.203Z,103076.22
2023-02-12T20:09:02.478Z,103071.28
2023-02-12T20:11:31.074Z,103070.34
2023-02-12T20:13:58.025Z,103067.06
2023-02-12T20:16:31.049Z,103076.34
2023-02-12T20:19:10.988Z,103068.94
2023-02-12T20:21:37.679Z,103067.25
2023-02-12T20:24:05.044Z,103071.66
2023-02-12T20:26:32.504Z,103067.00
2023-02-12T20:29:00.352Z,103058.16
2023-02-12T20:31:29.605Z,103023.78
2023-02-12T20:34:04.818Z,103074.75
2023-02-12T20:36:33.389Z,103041.84
2023-02-12T20:39:00.311Z,103037.09
2023-02-12T20:41:27.623Z,103041.75
2023-02-12T20:43:54.992Z,103064.00
2023-02-12T20:46:22.835Z,103059.00
2023-02-12T20:48:49.915Z,103066.53
2023-02-12T20:51:18.942Z,103056.44
2023-02-12T20:53:46.147Z,103066.34
2023-02-12T20:56:15.613Z,103022.38
2023-02-12T20:58:44.840Z,103055.31
2023-02-12T21:01:17.630Z,103047.84
2023-02-12T21:03:44.859Z,103018.69
2023-02-12T21:06:12.151Z,103002.78
2023-02-12T21:08:39.940Z,103038.41
2023-02-12T21:11:12.912Z,103050.22
2023-02-12T21:13:39.408Z,103036.97
2023-02-12T21:16:07.276Z,103048.81
2023-02-12T21:18:33.896Z,103053.03
2023-02-12T21:21:24.531Z,103049.41
2023-02-12T21:23:56.906Z,102977.78
2023-02-12T21:26:26.482Z,103051.00
2023-02-12T21:28:54.983Z,103053.94
2023-02-12T21:31:27.080Z,103052.69
2023-02-12T21:33:55.245Z,103053.72
2023-02-12T21:36:33.001Z,103022.53
2023-02-12T21:39:01.631Z,103026.19
2023-02-12T21:41:30.978Z,103049.19
2023-02-12T21:44:02.861Z,103049.44
2023-02-12T21:46:29.595Z,103027.19
2023-02-12T21:48:56.595Z,103039.59
2023-02-12T21:51:28.590Z,103040.59
2023-02-12T21:53:57.744Z,103052.13
2023-02-12T21:56:25.573Z,102998.38
2023-02-12T21:58:52.307Z,103048.44
2023-02-12T22:01:21.332Z,103050.00
2023-02-12T22:03:47.865Z,103040.44
2023-02-12T22:06:15.233Z,103052.16
2023-02-12T22:08:42.084Z,103055.19
2023-02-12T22:11:10.195Z,103041.78
2023-02-12T22:13:37.582Z,103044.19
2023-02-12T22:16:20.357Z,103047.72
2023-02-12T22:18:48.025Z,103051.44
2023-02-12T22:21:16.451Z,103047.56
2023-02-12T22:23:43.854Z,103039.28
2023-02-12T22:26:14.814Z,103048.22
2023-02-12T22:28:44.083Z,103037.06
2023-02-12T22:31:12.314Z,103046.00
2023-02-12T22:33:39.066Z,103047.00
2023-02-12T22:36:08.019Z,103045.22
2023-02-12T22:38:38.998Z,103039.50
2023-02-12T22:41:06.997Z,103051.38
2023-02-12T22:43:35.370Z,103044.81
2023-02-12T22:46:02.042Z,103040.50
2023-02-12T22:48:29.305Z,103048.41
2023-02-12T22:50:56.634Z,103020.09
2023-02-12T22:53:24.160Z,103018.00
2023-02-12T22:55:51.280Z,103010.97
2023-02-12T22:58:18.062Z,103032.03
2023-02-12T23:00:44.831Z,103044.19
2023-02-12T23:03:11.374Z,103005.84
2023-02-12T23:05:38.561Z,103029.78
2023-02-12T23:08:06.045Z,103039.56
2023-02-12T23:10:32.858Z,103021.97
2023-02-12T23:12:59.466Z,103044.97
2023-02-12T23:15:26.002Z,103040.56
2023-02-12T23:17:52.490Z,103047.81
2023-02-12T23:20:19.348Z,103045.06
2023-02-12T23:22:46.053Z,103034.91
2023-02-12T23:25:12.598Z,103008.81
2023-02-12T23:27:39.172Z,103035.94
2023-02-12T23:30:06.482Z,103032.81
2023-02-12T23:32:33.198Z,102953.47
2023-02-12T23:34:59.747Z,102948.94
2023-02-12T23:37:26.285Z,103003.22
2023-02-12T23:39:52.780Z,103026.44
2023-02-12T23:42:19.320Z,102992.09
2023-02-12T23:44:46.121Z,102997.44
2023-02-12T23:47:12.844Z,103000.09
2023-02-12T23:49:39.631Z,102954.81
2023-02-12T23:52:06.421Z,103014.78
2023-02-12T23:54:32.991Z,102981.25
2023-02-12T23:56:59.538Z,103008.50
2023-02-12T23:59:26.708Z,103003.03
